createdAt,value
2022-11-15T00:01:36.084Z,48.10
2022-11-15T00:06:39.905Z,53.30
2022-11-15T00:11:43.065Z,57.40
2022-11-15T00:16:47.084Z,60.00
2022-11-15T00:21:50.460Z,50.40
2022-11-15T00:26:54.138Z,55.60
2022-11-15T00:31:57.589Z,67.60
2022-11-15T00:37:01.516Z,48.60
2022-11-15T00:42:05.311Z,52.30
2022-11-15T00:47:08.522Z,56.30
2022-11-15T00:52:11.810Z,57.00
2022-11-15T00:57:15.168Z,59.00
2022-11-15T01:02:18.894Z,44.90
2022-11-15T01:07:22.345Z,45.60
2022-11-15T01:12:25.878Z,42.00
2022-11-15T01:17:29.623Z,57.50
2022-11-15T01:22:33.182Z,62.20
2022-11-15T01:27:36.815Z,52.60
2022-11-15T01:32:40.465Z,49.00
2022-11-15T01:37:44.238Z,34.50
2022-11-15T01:42:47.967Z,51.60
2022-11-15T01:47:55.460Z,57.20
2022-11-15T01:58:05.776Z,49.90
2022-11-15T02:03:09.511Z,54.70
2022-11-15T02:08:21.238Z,42.90
2022-11-15T02:13:24.938Z,48.20
2022-11-15T02:18:47.465Z,52.90
2022-11-15T02:24:09.583Z,47.90
2022-11-15T02:29:41.185Z,58.70
2022-11-15T02:35:23.135Z,44.10
2022-11-15T02:40:41.506Z,41.00
2022-11-15T02:45:53.064Z,45.20
2022-11-15T02:50:56.969Z,38.30
2022-11-15T02:56:00.657Z,42.80
2022-11-15T03:01:07.156Z,46.90
2022-11-15T03:06:34.185Z,50.50
2022-11-15T03:11:49.991Z,48.10
2022-11-15T03:16:56.426Z,39.20
2022-11-15T03:22:04.486Z,44.70
2022-11-15T03:27:11.565Z,35.50
2022-11-15T03:32:20.595Z,43.20
2022-11-15T03:37:30.820Z,37.10
2022-11-15T03:42:45.295Z,37.00
2022-11-15T03:48:19.917Z,36.80
2022-11-15T03:53:23.525Z,41.20
2022-11-15T03:58:27.326Z,37.60
2022-11-15T04:03:31.275Z,35.00
2022-11-15T04:08:35.250Z,39.30
2022-11-15T04:13:39.164Z,41.80
2022-11-15T04:18:42.874Z,42.90
2022-11-15T04:23:49.457Z,34.80
2022-11-15T04:29:11.958Z,39.20
2022-11-15T04:34:15.560Z,33.30
2022-11-15T04:39:19.272Z,32.40
2022-11-15T04:44:22.644Z,41.70
2022-11-15T04:49:26.187Z,30.90
2022-11-15T04:54:30.056Z,40.60
2022-11-15T04:59:33.742Z,27.60
2022-11-15T05:04:37.348Z,32.40
2022-11-15T05:09:40.712Z,35.70
2022-11-15T05:14:44.165Z,34.40
2022-11-15T05:19:48.086Z,37.00
2022-11-15T05:24:52.154Z,39.30
2022-11-15T05:29:55.838Z,32.70
2022-11-15T05:35:00.176Z,35.50
2022-11-15T05:40:03.838Z,37.20
2022-11-15T05:45:10.054Z,43.40
2022-11-15T05:50:17.174Z,33.80
2022-11-15T05:55:20.377Z,26.60
2022-11-15T06:00:23.708Z,35.00
2022-11-15T06:05:27.033Z,33.60
2022-11-15T06:10:30.825Z,37.10
2022-11-15T06:15:38.373Z,38.30
2022-11-15T06:20:42.050Z,21.00
2022-11-15T06:25:45.714Z,33.10
2022-11-15T06:30:53.163Z,30.60
2022-11-15T06:35:57.363Z,28.80
2022-11-15T06:41:05.767Z,28.20
2022-11-15T06:46:09.773Z,35.70
2022-11-15T06:51:14.553Z,25.30
2022-11-15T06:56:18.155Z,35.90
2022-11-15T07:01:21.753Z,31.00
2022-11-15T07:06:25.631Z,34.90
2022-11-15T07:11:30.849Z,32.90
2022-11-15T07:16:34.364Z,30.50
2022-11-15T07:21:37.965Z,30.30
2022-11-15T07:26:41.901Z,37.20
2022-11-15T07:31:45.748Z,36.30
2022-11-15T07:36:49.361Z,26.00
2022-11-15T07:42:13.356Z,34.10
2022-11-15T07:47:16.774Z,34.00
2022-11-15T07:52:20.343Z,29.80
2022-11-15T07:57:23.949Z,36.00
2022-11-15T08:02:30.381Z,44.10
2022-11-15T08:07:34.479Z,26.60
2022-11-15T08:12:38.179Z,31.30
2022-11-15T08:17:41.631Z,25.70
2022-11-15T08:22:45.410Z,23.00
2022-11-15T08:27:48.876Z,30.90
2022-11-15T08:32:54.328Z,33.50
2022-11-15T08:37:57.570Z,34.00
2022-11-15T08:43:03.758Z,35.90
2022-11-15T08:48:07.574Z,39.90
2022-11-15T08:53:11.433Z,36.00
2022-11-15T08:58:15.183Z,30.40
2022-11-15T09:03:18.889Z,41.90
2022-11-15T09:13:46.290Z,41.40
2022-11-15T09:18:50.033Z,28.80
2022-11-15T09:23:54.031Z,34.90
2022-11-15T09:28:57.851Z,41.00
2022-11-15T09:34:01.352Z,40.80
2022-11-15T09:39:05.143Z,36.80
2022-11-15T09:44:25.130Z,36.10
2022-11-15T09:49:32.100Z,32.10
2022-11-15T09:54:56.185Z,31.90
2022-11-15T10:00:48.740Z,34.40
2022-11-15T10:05:56.088Z,30.70
2022-11-15T10:16:59.946Z,32.20
2022-11-15T10:22:15.991Z,34.40
2022-11-15T10:27:20.946Z,36.70
2022-11-15T10:32:24.456Z,35.30
2022-11-15T10:37:33.146Z,31.60
2022-11-15T10:42:36.722Z,29.00
2022-11-15T10:47:40.157Z,30.50
2022-11-15T10:52:48.705Z,32.20
2022-11-15T10:57:56.131Z,27.90
2022-11-15T11:03:03.842Z,26.80
2022-11-15T11:08:13.686Z,28.80
2022-11-15T11:13:25.298Z,26.50
2022-11-15T11:18:55.821Z,29.90
2022-11-15T11:24:12.072Z,22.80
2022-11-15T11:29:15.814Z,22.40
2022-11-15T11:34:37.844Z,24.10
2022-11-15T11:39:57.493Z,25.20
2022-11-15T11:45:32.072Z,30.30
2022-11-15T11:50:39.420Z,22.80
2022-11-15T11:55:55.846Z,29.20
2022-11-15T12:01:27.259Z,33.30
2022-11-15T12:06:39.432Z,25.90
2022-11-15T12:12:10.517Z,22.70
2022-11-15T12:17:15.707Z,25.00
2022-11-15T12:22:41.739Z,24.10
2022-11-15T12:27:57.533Z,29.10
2022-11-15T12:33:02.827Z,25.70
2022-11-15T12:38:10.736Z,27.60
2022-11-15T12:43:16.990Z,26.60
2022-11-15T12:48:20.337Z,21.60
2022-11-15T12:53:26.874Z,23.60
2022-11-15T12:58:58.969Z,25.90
2022-11-15T13:04:21.129Z,20.00
2022-11-15T13:09:33.922Z,30.60
2022-11-15T13:14:42.286Z,26.50
2022-11-15T13:19:48.393Z,22.70
2022-11-15T13:24:53.854Z,24.40
2022-11-15T13:29:57.565Z,23.80
2022-11-15T13:35:02.850Z,24.30
2022-11-15T13:40:29.231Z,22.00
2022-11-15T13:45:32.801Z,24.80
2022-11-15T13:50:40.270Z,21.60
2022-11-15T13:55:43.633Z,22.90
2022-11-15T14:00:48.647Z,24.10
2022-11-15T14:06:09.390Z,18.20
2022-11-15T14:11:22.494Z,19.30
2022-11-15T14:16:38.469Z,20.90
2022-11-15T14:22:18.356Z,20.80
2022-11-15T14:27:30.617Z,18.50
2022-11-15T14:32:45.937Z,19.60
2022-11-15T14:37:50.613Z,21.10
2022-11-15T14:42:54.670Z,21.70
2022-11-15T14:47:58.860Z,23.30
2022-11-15T14:53:03.139Z,18.70
2022-11-15T14:58:09.505Z,18.50
2022-11-15T15:03:14.365Z,20.00
2022-11-15T15:08:17.983Z,24.20
2022-11-15T15:13:24.466Z,21.60
2022-11-15T15:18:27.907Z,16.30
2022-11-15T15:23:32.233Z,24.90
2022-11-15T15:28:36.680Z,23.50
2022-11-15T15:33:40.608Z,21.40
2022-11-15T15:38:47.926Z,23.00
2022-11-15T15:43:51.720Z,24.80
2022-11-15T15:48:55.165Z,31.80
2022-11-15T15:53:59.457Z,45.30
2022-11-15T15:59:03.168Z,50.30
2022-11-15T16:04:06.829Z,53.60
2022-11-15T16:09:43.924Z,56.00
2022-11-15T16:14:47.664Z,67.60
2022-11-15T16:19:51.091Z,64.60
2022-11-15T16:24:56.946Z,71.50
2022-11-15T16:30:00.457Z,58.60
2022-11-15T16:35:04.335Z,74.40
2022-11-15T16:40:31.705Z,55.30
2022-11-15T16:45:36.334Z,70.50
2022-11-15T16:50:40.567Z,65.80
2022-11-15T16:55:44.369Z,64.50
2022-11-15T17:00:53.615Z,65.30
2022-11-15T17:06:02.954Z,60.20
2022-11-15T17:11:10.443Z,56.20
2022-11-15T17:16:18.403Z,65.60
2022-11-15T17:26:31.962Z,66.60
2022-11-15T17:31:38.929Z,60.20
2022-11-15T17:36:42.910Z,58.60
2022-11-15T17:41:49.547Z,54.80
2022-11-15T17:46:53.602Z,56.80
2022-11-15T17:51:57.402Z,52.60
2022-11-15T17:57:02.589Z,61.20
2022-11-15T18:02:09.666Z,60.00
2022-11-15T18:07:14.476Z,57.70
2022-11-15T18:12:18.138Z,56.10
2022-11-15T18:17:21.639Z,53.40
2022-11-15T18:22:25.357Z,61.80
2022-11-15T18:27:29.143Z,66.30
2022-11-15T18:32:32.530Z,55.10
2022-11-15T18:37:36.028Z,59.10
2022-11-15T18:42:39.602Z,63.30
2022-11-15T18:47:43.606Z,58.70
2022-11-15T18:52:47.477Z,65.00
2022-11-15T18:57:51.140Z,57.40
2022-11-15T19:02:55.467Z,50.60
2022-11-15T19:07:59.059Z,55.60
2022-11-15T19:13:03.535Z,55.00
2022-11-15T19:18:08.537Z,55.60
2022-11-15T19:23:12.832Z,61.70
2022-11-15T19:28:17.333Z,53.40
2022-11-15T19:33:27.544Z,51.50
2022-11-15T19:38:33.024Z,67.40
2022-11-15T19:43:37.924Z,72.60
2022-11-15T19:48:42.282Z,62.50
2022-11-15T19:53:46.330Z,63.00
2022-11-15T19:58:54.803Z,58.60
2022-11-15T20:04:00.438Z,60.70
2022-11-15T20:09:04.697Z,55.00
2022-11-15T20:14:10.404Z,62.30
2022-11-15T20:19:16.049Z,67.50
2022-11-15T20:24:19.706Z,65.90
2022-11-15T20:29:24.147Z,65.30
2022-11-15T20:34:28.803Z,69.00
2022-11-15T20:39:32.923Z,67.00
2022-11-15T20:44:37.442Z,67.40
2022-11-15T20:49:40.936Z,68.70
2022-11-15T20:54:45.474Z,62.90
2022-11-15T20:59:49.321Z,71.30
2022-11-15T21:04:53.807Z,73.50
2022-11-15T21:10:19.103Z,68.40
2022-11-15T21:15:24.062Z,74.30
2022-11-15T21:20:28.571Z,67.10
2022-11-15T21:25:33.960Z,73.40
2022-11-15T21:30:38.943Z,64.50
2022-11-15T21:35:43.270Z,74.20
2022-11-15T21:40:46.742Z,68.80
2022-11-15T21:46:01.397Z,59.20
2022-11-15T21:51:11.408Z,69.80
2022-11-15T21:56:15.667Z,68.30
2022-11-15T22:01:38.598Z,65.30
2022-11-15T22:06:42.393Z,68.30
2022-11-15T22:11:46.330Z,60.60
2022-11-15T22:16:50.075Z,59.90
2022-11-15T22:21:53.630Z,56.60
2022-11-15T22:26:57.369Z,60.70
2022-11-15T22:32:01.218Z,59.30
2022-11-15T22:37:21.072Z,65.10
2022-11-15T22:42:25.903Z,55.90
2022-11-15T22:47:29.455Z,40.40
2022-11-15T22:52:34.146Z,53.70
2022-11-15T22:57:38.851Z,48.60
2022-11-15T23:02:42.657Z,51.80
2022-11-15T23:07:46.161Z,50.70
2022-11-15T23:13:09.095Z,55.40
2022-11-15T23:18:12.903Z,50.90
2022-11-15T23:23:16.932Z,42.30
2022-11-15T23:28:20.843Z,40.30
2022-11-15T23:33:43.551Z,42.70
2022-11-15T23:38:47.663Z,43.90
2022-11-15T23:43:52.353Z,39.80
2022-11-15T23:48:55.927Z,41.50
2022-11-15T23:53:59.666Z,39.30
2022-11-15T23:59:04.713Z,38.20
